Time,TemperatureF,DewpointF,PressureIn,WindDirection,WindDirectionDegrees,WindSpeedMPH,WindSpeedGustMPH,Humidity,HourlyPrecipIn,Conditions,Clouds,dailyrainin,SoftwareType,DateUTC
2013-01-09 00:00:00,40.1,37.7,29.78,SSW,206,4.0,18.0,91,0.08,,---,0.51,VWS V14.01,2013-01-09 08:00:00,
2013-01-09 00:03:00,40.0,37.6,29.78,SSE,165,5.0,8.0,91,0.05,,---,0.00,VWS V14.01,2013-01-09 08:03:00,
2013-01-09 00:08:00,40.0,37.6,29.78,South,180,3.0,11.0,91,0.05,,---,0.00,VWS V14.01,2013-01-09 08:08:00,
2013-01-09 00:13:00,39.9,37.2,29.78,SSW,198,0.0,11.0,90,0.05,,---,0.00,VWS V14.01,2013-01-09 08:13:00,
2013-01-09 00:18:00,39.8,37.1,29.78,South,185,0.0,11.0,90,0.06,,---,0.01,VWS V14.01,2013-01-09 08:18:00,
2013-01-09 00:23:00,39.8,37.1,29.77,SSE,159,9.0,11.0,90,0.06,,---,0.01,VWS V14.01,2013-01-09 08:23:00,
2013-01-09 00:28:00,39.7,37.0,29.77,SW,218,6.0,11.0,90,0.06,,---,0.01,VWS V14.01,2013-01-09 08:28:00,
2013-01-09 00:33:00,39.8,37.1,29.78,SSW,202,8.0,11.0,90,0.07,,---,0.02,VWS V14.01,2013-01-09 08:33:00,
2013-01-09 00:38:00,39.9,37.2,29.78,SSW,212,6.0,11.0,90,0.07,,---,0.02,VWS V14.01,2013-01-09 08:38:00,
2013-01-09 00:43:00,40.2,37.5,29.78,West,275,3.0,14.0,90,0.07,,---,0.02,VWS V14.01,2013-01-09 08:43:00,
2013-01-09 00:48:00,40.4,37.4,29.78,SSW,205,4.0,14.0,89,0.08,,---,0.03,VWS V14.01,2013-01-09 08:48:00,
2013-01-09 00:53:00,40.6,37.6,29.78,WSW,246,9.0,17.0,89,0.08,,---,0.03,VWS V14.01,2013-01-09 08:53:00,
2013-01-09 00:58:00,40.6,37.3,29.78,SW,222,4.0,17.0,88,0.08,,---,0.03,VWS V14.01,2013-01-09 08:58:00,
2013-01-09 01:00:00,40.5,37.2,29.78,South,190,5.0,17.0,88,0.09,,---,0.04,VWS V14.01,2013-01-09 09:00:00,
2013-01-09 01:03:00,40.5,37.2,29.78,SSW,207,4.0,8.0,88,0.04,,---,0.04,VWS V14.01,2013-01-09 09:03:00,
2013-01-09 01:08:00,40.4,37.4,29.78,SSW,202,2.0,13.0,89,0.04,,---,0.04,VWS V14.01,2013-01-09 09:08:00,
2013-01-09 01:13:00,40.2,37.2,29.78,West,265,4.0,13.0,89,0.04,,---,0.04,VWS V14.01,2013-01-09 09:13:00,
2013-01-09 01:18:00,40.2,37.2,29.77,South,179,2.0,13.0,89,0.05,,---,0.05,VWS V14.01,2013-01-09 09:18:00,
2013-01-09 01:23:00,40.2,37.2,29.76,South,181,6.0,13.0,89,0.05,,---,0.05,VWS V14.01,2013-01-09 09:23:00,
2013-01-09 01:28:00,40.4,37.4,29.77,South,175,5.0,13.0,89,0.05,,---,0.05,VWS V14.01,2013-01-09 09:28:00,
2013-01-09 01:33:00,40.5,37.5,29.77,South,176,2.0,13.0,89,0.06,,---,0.06,VWS V14.01,2013-01-09 09:33:00,
2013-01-09 01:38:00,40.6,37.3,29.77,ESE,113,8.0,13.0,88,0.06,,---,0.06,VWS V14.01,2013-01-09 09:38:00,
2013-01-09 01:43:00,40.8,37.5,29.77,South,188,3.0,13.0,88,0.06,,---,0.06,VWS V14.01,2013-01-09 09:43:00,
2013-01-09 01:48:00,40.9,37.6,29.76,South,181,7.0,13.0,88,0.06,,---,0.06,VWS V14.01,2013-01-09 09:48:00,
2013-01-09 01:53:00,41.0,38.9,29.77,WSW,248,6.0,13.0,92,0.07,,---,0.07,VWS V14.01,2013-01-09 09:53:00,
2013-01-09 01:58:00,41.0,37.4,29.78,South,173,2.0,13.0,87,0.07,,---,0.07,VWS V14.01,2013-01-09 09:58:00,
2013-01-09 02:00:00,41.0,37.4,29.78,SSW,211,1.0,13.0,87,0.08,,---,0.08,VWS V14.01,2013-01-09 10:00:00,
2013-01-09 02:03:00,41.0,37.4,29.77,SW,221,5.0,5.0,87,0.04,,---,0.08,VWS V14.01,2013-01-09 10:03:00,
2013-01-09 02:08:00,41.0,37.4,29.77,South,188,6.0,7.0,87,0.04,,---,0.08,VWS V14.01,2013-01-09 10:08:00,
2013-01-09 02:13:00,40.9,37.3,29.76,South,172,10.0,12.0,87,0.04,,---,0.08,VWS V14.01,2013-01-09 10:13:00,
2013-01-09 02:18:00,40.9,37.3,29.77,SSW,196,2.0,12.0,87,0.04,,---,0.08,VWS V14.01,2013-01-09 10:18:00,
2013-01-09 02:23:00,40.8,37.2,29.76,South,178,2.0,12.0,87,0.05,,---,0.09,VWS V14.01,2013-01-09 10:23:00,
2013-01-09 02:28:00,40.6,36.8,29.76,South,188,6.0,12.0,86,0.05,,---,0.09,VWS V14.01,2013-01-09 10:28:00,
2013-01-09 02:33:00,40.6,36.8,29.76,SSW,194,1.0,12.0,86,0.05,,---,0.09,VWS V14.01,2013-01-09 10:33:00,
2013-01-09 02:38:00,40.5,36.7,29.76,SSE,168,4.0,12.0,86,0.06,,---,0.10,VWS V14.01,2013-01-09 10:38:00,
2013-01-09 02:43:00,40.4,36.5,29.76,SSE,151,7.0,12.0,86,0.06,,---,0.10,VWS V14.01,2013-01-09 10:43:00,
2013-01-09 02:48:00,40.5,36.7,29.76,SSE,168,2.0,13.0,86,0.06,,---,0.10,VWS V14.01,2013-01-09 10:48:00,
2013-01-09 02:53:00,40.5,36.7,29.76,SSE,167,5.0,13.0,86,0.06,,---,0.10,VWS V14.01,2013-01-09 10:53:00,
2013-01-09 02:58:00,40.3,36.5,29.76,SSW,207,4.0,13.0,86,0.07,,---,0.11,VWS V14.01,2013-01-09 10:58:00,
2013-01-09 03:00:00,40.3,36.5,29.76,South,171,4.0,13.0,86,0.07,,---,0.11,VWS V14.01,2013-01-09 11:00:00,
2013-01-09 03:03:00,40.2,36.3,29.76,SE,133,2.0,4.0,86,0.03,,---,0.11,VWS V14.01,2013-01-09 11:03:00,
2013-01-09 03:08:00,40.1,36.3,29.76,SSW,211,2.0,7.0,86,0.03,,---,0.11,VWS V14.01,2013-01-09 11:08:00,
2013-01-09 03:13:00,40.0,36.2,29.76,South,182,1.0,7.0,86,0.04,,---,0.12,VWS V14.01,2013-01-09 11:13:00,
2013-01-09 03:18:00,39.8,36.0,29.76,SE,146,2.0,7.0,86,0.04,,---,0.12,VWS V14.01,2013-01-09 11:18:00,
2013-01-09 03:23:00,39.8,36.0,29.76,SSW,205,1.0,7.0,86,0.04,,---,0.12,VWS V14.01,2013-01-09 11:23:00,
2013-01-09 03:28:00,39.7,35.9,29.76,South,189,1.0,12.0,86,0.04,,---,0.12,VWS V14.01,2013-01-09 11:28:00,
2013-01-09 03:33:00,39.6,35.8,29.76,South,175,4.0,12.0,86,0.05,,---,0.13,VWS V14.01,2013-01-09 11:33:00,
2013-01-09 03:38:00,39.5,35.7,29.77,South,182,4.0,12.0,86,0.05,,---,0.13,VWS V14.01,2013-01-09 11:38:00,
2013-01-09 03:43:00,39.5,35.7,29.76,South,184,3.0,12.0,86,0.05,,---,0.13,VWS V14.01,2013-01-09 11:43:00,
2013-01-09 03:48:00,39.3,35.5,29.77,South,175,1.0,12.0,86,0.05,,---,0.13,VWS V14.01,2013-01-09 11:48:00,
2013-01-09 03:53:00,39.2,35.4,29.76,SSW,195,6.0,12.0,86,0.06,,---,0.14,VWS V14.01,2013-01-09 11:53:00,
2013-01-09 03:58:00,39.1,35.3,29.76,South,172,1.0,12.0,86,0.06,,---,0.14,VWS V14.01,2013-01-09 11:58:00,
2013-01-09 04:00:00,39.1,35.3,29.76,SSW,192,0.0,12.0,86,0.06,,---,0.14,VWS V14.01,2013-01-09 12:00:00,
2013-01-09 04:03:00,39.0,35.2,29.76,South,187,3.0,10.0,86,0.03,,---,0.14,VWS V14.01,2013-01-09 12:03:00,
2013-01-09 04:08:00,39.0,35.2,29.75,SSW,196,4.0,10.0,86,0.03,,---,0.14,VWS V14.01,2013-01-09 12:08:00,
2013-01-09 04:13:00,38.9,35.1,29.74,SE,141,2.0,10.0,86,0.04,,---,0.15,VWS V14.01,2013-01-09 12:13:00,
2013-01-09 04:18:00,38.7,34.9,29.74,South,184,3.0,10.0,86,0.04,,---,0.15,VWS V14.01,2013-01-09 12:18:00,
2013-01-09 04:23:00,38.6,34.8,29.74,South,182,5.0,10.0,86,0.04,,---,0.15,VWS V14.01,2013-01-09 12:23:00,
2013-01-09 04:28:00,38.5,35.0,29.73,SSE,165,2.0,10.0,87,0.05,,---,0.16,VWS V14.01,2013-01-09 12:28:00,
2013-01-09 04:33:00,38.4,34.9,29.74,South,182,0.0,10.0,87,0.05,,---,0.16,VWS V14.01,2013-01-09 12:33:00,
2013-01-09 04:38:00,38.3,34.8,29.73,South,183,0.0,10.0,87,0.05,,---,0.16,VWS V14.01,2013-01-09 12:38:00,
2013-01-09 04:43:00,38.2,34.7,29.73,South,183,0.0,10.0,87,0.05,,---,0.16,VWS V14.01,2013-01-09 12:43:00,
2013-01-09 04:48:00,38.1,34.6,29.74,South,186,3.0,10.0,87,0.05,,---,0.16,VWS V14.01,2013-01-09 12:48:00,
2013-01-09 04:53:00,38.1,34.6,29.73,South,176,1.0,10.0,87,0.06,,---,0.17,VWS V14.01,2013-01-09 12:53:00,
2013-01-09 04:58:00,38.2,34.7,29.73,SSW,205,0.0,10.0,87,0.06,,---,0.17,VWS V14.01,2013-01-09 12:58:00,
2013-01-09 05:00:00,38.2,35.0,29.73,SSW,205,0.0,10.0,88,0.06,,---,0.17,VWS V14.01,2013-01-09 13:00:00,
2013-01-09 05:03:00,38.2,34.7,29.73,SSW,205,0.0,1.0,87,0.03,,---,0.17,VWS V14.01,2013-01-09 13:03:00,
2013-01-09 05:08:00,38.1,34.9,29.72,SSW,205,0.0,1.0,88,0.03,,---,0.17,VWS V14.01,2013-01-09 13:08:00,
2013-01-09 05:13:00,38.0,34.8,29.72,SSW,205,0.0,1.0,88,0.04,,---,0.18,VWS V14.01,2013-01-09 13:13:00,
2013-01-09 05:18:00,38.0,34.8,29.72,SSW,205,0.0,2.0,88,0.04,,---,0.18,VWS V14.01,2013-01-09 13:18:00,
2013-01-09 05:23:00,37.9,34.7,29.72,SSW,205,2.0,3.0,88,0.04,,---,0.18,VWS V14.01,2013-01-09 13:23:00,
2013-01-09 05:28:00,37.8,34.6,29.72,SSW,205,0.0,3.0,88,0.04,,---,0.18,VWS V14.01,2013-01-09 13:28:00,
2013-01-09 05:33:00,37.7,34.8,29.71,SSW,205,0.0,3.0,89,0.04,,---,0.18,VWS V14.01,2013-01-09 13:33:00,
2013-01-09 05:38:00,37.6,34.4,29.71,SSW,205,0.0,3.0,88,0.05,,---,0.19,VWS V14.01,2013-01-09 13:38:00,
2013-01-09 05:43:00,37.5,34.3,29.70,SSW,205,0.0,3.0,88,0.05,,---,0.19,VWS V14.01,2013-01-09 13:43:00,
2013-01-09 05:48:00,37.4,34.2,29.70,SSW,205,0.0,3.0,88,0.05,,---,0.19,VWS V14.01,2013-01-09 13:48:00,
2013-01-09 05:53:00,37.4,34.2,29.69,South,173,0.0,6.0,88,0.05,,---,0.19,VWS V14.01,2013-01-09 13:53:00,
2013-01-09 05:58:00,37.4,34.5,29.69,South,173,0.0,6.0,89,0.06,,---,0.20,VWS V14.01,2013-01-09 13:58:00,
2013-01-09 06:00:00,37.4,34.5,29.69,South,173,0.0,6.0,89,0.06,,---,0.20,VWS V14.01,2013-01-09 14:00:00,
2013-01-09 06:03:00,37.4,34.5,29.69,South,173,0.0,0.0,89,0.03,,---,0.20,VWS V14.01,2013-01-09 14:03:00,
2013-01-09 06:08:00,37.3,34.4,29.69,South,173,0.0,1.0,89,0.03,,---,0.20,VWS V14.01,2013-01-09 14:08:00,
2013-01-09 06:13:00,37.3,34.4,29.68,South,173,0.0,1.0,89,0.03,,---,0.20,VWS V14.01,2013-01-09 14:13:00,
2013-01-09 06:18:00,37.2,34.3,29.68,South,173,2.0,2.0,89,0.03,,---,0.20,VWS V14.01,2013-01-09 14:18:00,
2013-01-09 06:23:00,37.2,34.3,29.68,South,173,0.0,2.0,89,0.03,,---,0.20,VWS V14.01,2013-01-09 14:23:00,
2013-01-09 06:28:00,37.1,33.9,29.67,South,186,0.0,4.0,88,0.04,,---,0.21,VWS V14.01,2013-01-09 14:28:00,
2013-01-09 06:33:00,37.2,34.0,29.67,SSE,166,0.0,4.0,88,0.04,,---,0.21,VWS V14.01,2013-01-09 14:33:00,
2013-01-09 06:38:00,37.3,34.1,29.67,SSE,166,0.0,4.0,88,0.04,,---,0.21,VWS V14.01,2013-01-09 14:38:00,
2013-01-09 06:43:00,37.3,34.1,29.67,SSE,166,0.0,4.0,88,0.05,,---,0.22,VWS V14.01,2013-01-09 14:43:00,
2013-01-09 06:48:00,37.3,34.1,29.67,SSE,166,0.0,4.0,88,0.05,,---,0.22,VWS V14.01,2013-01-09 14:48:00,
2013-01-09 06:53:00,37.3,34.1,29.67,SSE,166,0.0,4.0,88,0.05,,---,0.22,VWS V14.01,2013-01-09 14:53:00,
2013-01-09 06:58:00,37.3,34.1,29.67,SSE,166,0.0,4.0,88,0.05,,---,0.22,VWS V14.01,2013-01-09 14:58:00,
2013-01-09 07:00:00,37.3,34.1,29.67,SSE,166,1.0,4.0,88,0.05,,---,0.22,VWS V14.01,2013-01-09 15:00:00,
2013-01-09 07:03:00,37.3,34.1,29.66,SSE,166,0.0,1.0,88,0.02,,---,0.22,VWS V14.01,2013-01-09 15:03:00,
2013-01-09 07:08:00,37.3,34.1,29.66,SE,129,0.0,5.0,88,0.02,,---,0.22,VWS V14.01,2013-01-09 15:08:00,
2013-01-09 07:13:00,37.4,34.2,29.66,NNW,327,0.0,5.0,88,0.03,,---,0.23,VWS V14.01,2013-01-09 15:13:00,
2013-01-09 07:18:00,37.5,34.0,29.65,NNW,327,1.0,5.0,87,0.03,,---,0.23,VWS V14.01,2013-01-09 15:18:00,
2013-01-09 07:23:00,37.5,34.0,29.65,NNW,327,1.0,5.0,87,0.03,,---,0.23,VWS V14.01,2013-01-09 15:23:00,
2013-01-09 07:28:00,37.5,34.0,29.65,ESE,119,0.0,5.0,87,0.03,,---,0.23,VWS V14.01,2013-01-09 15:28:00,
2013-01-09 07:33:00,37.6,33.8,29.65,SSW,203,0.0,5.0,86,0.03,,---,0.23,VWS V14.01,2013-01-09 15:33:00,
2013-01-09 07:38:00,37.7,33.9,29.65,East,92,6.0,6.0,86,0.03,,---,0.23,VWS V14.01,2013-01-09 15:38:00,
2013-01-09 07:43:00,37.8,34.0,29.65,NE,46,0.0,6.0,86,0.04,,---,0.24,VWS V14.01,2013-01-09 15:43:00,
2013-01-09 07:48:00,38.0,34.5,29.65,South,173,0.0,6.0,87,0.04,,---,0.24,VWS V14.01,2013-01-09 15:48:00,
2013-01-09 07:53:00,38.2,34.4,29.64,South,186,0.0,6.0,86,0.04,,---,0.24,VWS V14.01,2013-01-09 15:53:00,
2013-01-09 07:58:00,38.5,34.7,29.64,South,176,0.0,8.0,86,0.04,,---,0.24,VWS V14.01,2013-01-09 15:58:00,
2013-01-09 08:00:00,38.6,34.8,29.64,South,176,1.0,8.0,86,0.04,,---,0.24,VWS V14.01,2013-01-09 16:00:00,
2013-01-09 08:03:00,38.7,34.9,29.64,South,171,0.0,5.0,86,0.02,,---,0.24,VWS V14.01,2013-01-09 16:03:00,
2013-01-09 08:08:00,38.8,35.0,29.64,SSW,194,4.0,6.0,86,0.02,,---,0.24,VWS V14.01,2013-01-09 16:08:00,
2013-01-09 08:13:00,39.0,35.2,29.63,NNE,28,0.0,6.0,86,0.03,,---,0.25,VWS V14.01,2013-01-09 16:13:00,
2013-01-09 08:18:00,39.2,35.7,29.63,SE,128,1.0,11.0,87,0.03,,---,0.25,VWS V14.01,2013-01-09 16:18:00,
2013-01-09 08:23:00,39.5,36.0,29.62,SE,146,2.0,11.0,87,0.03,,---,0.25,VWS V14.01,2013-01-09 16:23:00,
2013-01-09 08:28:00,39.8,36.2,29.62,South,184,3.0,11.0,87,0.04,,---,0.26,VWS V14.01,2013-01-09 16:28:00,
2013-01-09 08:33:00,40.1,36.5,29.62,SSW,213,5.0,11.0,87,0.04,,---,0.26,VWS V14.01,2013-01-09 16:33:00,
2013-01-09 08:38:00,40.3,36.5,29.61,SE,141,2.0,11.0,86,0.04,,---,0.26,VWS V14.01,2013-01-09 16:38:00,
2013-01-09 08:43:00,40.4,36.5,29.61,SSE,148,4.0,11.0,86,0.04,,---,0.26,VWS V14.01,2013-01-09 16:43:00,
2013-01-09 08:48:00,40.4,36.5,29.61,West,259,1.0,11.0,86,0.04,,---,0.26,VWS V14.01,2013-01-09 16:48:00,
2013-01-09 08:53:00,40.5,36.3,29.60,SSW,203,0.0,11.0,85,0.04,,---,0.26,VWS V14.01,2013-01-09 16:53:00,
2013-01-09 08:58:00,40.3,36.2,29.60,SSW,198,0.0,11.0,85,0.04,,---,0.26,VWS V14.01,2013-01-09 16:58:00,
2013-01-09 09:00:00,40.3,36.2,29.59,SSE,148,7.0,11.0,85,0.05,,---,0.27,VWS V14.01,2013-01-09 17:00:00,
2013-01-09 09:03:00,40.2,36.1,29.59,SE,133,0.0,7.0,85,0.03,,---,0.27,VWS V14.01,2013-01-09 17:03:00,
2013-01-09 09:08:00,40.1,36.0,29.59,SSW,200,1.0,7.0,85,0.03,,---,0.27,VWS V14.01,2013-01-09 17:08:00,
2013-01-09 09:13:00,40.3,36.2,29.59,SW,219,2.0,8.0,85,0.03,,---,0.27,VWS V14.01,2013-01-09 17:13:00,
2013-01-09 09:18:00,40.0,35.9,29.58,South,175,2.0,8.0,85,0.03,,---,0.27,VWS V14.01,2013-01-09 17:18:00,
2013-01-09 09:23:00,40.4,36.0,29.58,SSW,198,2.0,9.0,84,0.04,,---,0.28,VWS V14.01,2013-01-09 17:23:00,
2013-01-09 09:28:00,40.7,36.2,29.58,SSE,153,4.0,9.0,84,0.04,,---,0.28,VWS V14.01,2013-01-09 17:28:00,
2013-01-09 09:33:00,41.0,36.2,29.58,South,182,1.0,9.0,83,0.04,,---,0.28,VWS V14.01,2013-01-09 17:33:00,
2013-01-09 09:38:00,40.8,36.0,29.58,SE,145,5.0,9.0,83,0.04,,---,0.28,VWS V14.01,2013-01-09 17:38:00,
2013-01-09 09:43:00,41.2,36.4,29.58,SSE,152,2.0,9.0,83,0.04,,---,0.28,VWS V14.01,2013-01-09 17:43:00,
2013-01-09 09:48:00,41.2,36.4,29.57,ESE,122,5.0,11.0,83,0.05,,---,0.29,VWS V14.01,2013-01-09 17:48:00,
2013-01-09 09:53:00,41.7,36.6,29.57,South,186,1.0,11.0,82,0.05,,---,0.29,VWS V14.01,2013-01-09 17:53:00,
2013-01-09 09:58:00,41.9,36.8,29.56,South,173,5.0,12.0,82,0.05,,---,0.29,VWS V14.01,2013-01-09 17:58:00,
2013-01-09 10:00:00,41.8,36.7,29.56,South,171,4.0,12.0,82,0.05,,---,0.29,VWS V14.01,2013-01-09 18:00:00,
2013-01-09 10:03:00,41.9,36.8,29.56,South,190,3.0,14.0,82,0.03,,---,0.30,VWS V14.01,2013-01-09 18:03:00,
2013-01-09 10:08:00,42.1,36.7,29.56,South,182,5.0,14.0,81,0.03,,---,0.30,VWS V14.01,2013-01-09 18:08:00,
2013-01-09 10:13:00,42.1,36.7,29.56,SSE,154,2.0,14.0,81,0.03,,---,0.30,VWS V14.01,2013-01-09 18:13:00,
2013-01-09 10:18:00,42.2,37.1,29.56,South,177,4.0,14.0,82,0.03,,---,0.30,VWS V14.01,2013-01-09 18:18:00,
2013-01-09 10:23:00,42.4,37.0,29.55,SSW,205,3.0,19.0,81,0.03,,---,0.30,VWS V14.01,2013-01-09 18:23:00,
2013-01-09 10:28:00,42.3,36.9,29.55,SSE,150,10.0,19.0,81,0.03,,---,0.30,VWS V14.01,2013-01-09 18:28:00,
2013-01-09 10:33:00,42.0,36.6,29.55,South,191,1.0,19.0,81,0.04,,---,0.31,VWS V14.01,2013-01-09 18:33:00,
2013-01-09 10:38:00,41.9,36.8,29.55,SSW,209,3.0,19.0,82,0.04,,---,0.31,VWS V14.01,2013-01-09 18:38:00,
2013-01-09 10:41:00,42.0,36.9,29.55,South,174,2.0,19.0,82,0.04,,---,0.31,VWS V14.01,2013-01-09 18:41:00,
2013-01-09 10:44:00,42.1,36.7,29.55,SSW,192,6.0,19.0,81,0.04,,---,0.31,VWS V14.01,2013-01-09 18:44:00,
2013-01-09 10:45:00,42.1,36.7,29.55,SW,218,8.0,19.0,81,0.04,,---,0.31,VWS V14.01,2013-01-09 18:45:00,
2013-01-09 10:48:00,42.1,36.7,29.55,SW,216,2.0,19.0,81,0.05,,---,0.32,VWS V14.01,2013-01-09 18:48:00,
2013-01-09 10:53:00,41.9,36.5,29.55,SE,144,2.0,19.0,81,0.05,,---,0.32,VWS V14.01,2013-01-09 18:53:00,
2013-01-09 10:58:00,41.5,36.4,29.54,SSW,209,2.0,19.0,82,0.05,,---,0.32,VWS V14.01,2013-01-09 18:58:00,
2013-01-09 11:00:00,41.7,36.6,29.54,South,185,4.0,19.0,82,0.05,,---,0.32,VWS V14.01,2013-01-09 19:00:00,
2013-01-09 11:03:00,41.8,36.4,29.54,SSW,205,8.0,10.0,81,0.03,,---,0.32,VWS V14.01,2013-01-09 19:03:00,
2013-01-09 11:10:00,41.9,36.5,29.54,South,171,1.0,1.0,81,0.00,,---,0.32,VWS V14.01,2013-01-09 19:10:00,
2013-01-09 11:15:00,41.8,36.4,29.54,South,188,4.0,9.0,81,0.03,,---,0.32,VWS V14.01,2013-01-09 19:15:00,
2013-01-09 11:20:00,41.7,36.3,29.54,South,170,4.0,9.0,81,0.04,,---,0.33,VWS V14.01,2013-01-09 19:20:00,
2013-01-09 11:25:00,41.8,36.4,29.54,SSE,165,4.0,9.0,81,0.04,,---,0.33,VWS V14.01,2013-01-09 19:25:00,
2013-01-09 11:30:00,41.8,36.4,29.54,South,180,8.0,9.0,81,0.04,,---,0.33,VWS V14.01,2013-01-09 19:30:00,
2013-01-09 11:35:00,41.9,36.5,29.53,SSW,203,0.0,9.0,81,0.04,,---,0.33,VWS V14.01,2013-01-09 19:35:00,
2013-01-09 11:40:00,41.8,36.4,29.53,South,170,1.0,9.0,81,0.05,,---,0.34,VWS V14.01,2013-01-09 19:40:00,
2013-01-09 11:45:00,42.0,36.6,29.54,South,186,2.0,9.0,81,0.05,,---,0.34,VWS V14.01,2013-01-09 19:45:00,
2013-01-09 11:50:00,41.9,36.5,29.54,South,169,1.0,9.0,81,0.05,,---,0.34,VWS V14.01,2013-01-09 19:50:00,
2013-01-09 11:55:00,41.9,36.5,29.53,South,182,0.0,9.0,81,0.05,,---,0.34,VWS V14.01,2013-01-09 19:55:00,
2013-01-09 12:00:00,41.8,36.4,29.53,South,173,6.0,9.0,81,0.05,,---,0.34,VWS V14.01,2013-01-09 20:00:00,
2013-01-09 12:05:00,42.0,36.6,29.54,SSE,149,4.0,8.0,81,0.02,,---,0.34,VWS V14.01,2013-01-09 20:05:00,
2013-01-09 12:10:00,42.3,36.6,29.54,SSW,209,3.0,8.0,80,0.03,,---,0.35,VWS V14.01,2013-01-09 20:10:00,
2013-01-09 12:15:00,42.2,36.5,29.53,SSW,194,3.0,9.0,80,0.03,,---,0.35,VWS V14.01,2013-01-09 20:15:00,
2013-01-09 12:20:00,42.5,36.8,29.53,South,170,5.0,10.0,80,0.03,,---,0.35,VWS V14.01,2013-01-09 20:20:00,
2013-01-09 12:25:00,42.6,36.5,29.53,West,281,3.0,10.0,79,0.03,,---,0.35,VWS V14.01,2013-01-09 20:25:00,
2013-01-09 12:30:00,42.8,36.8,29.53,SSW,203,1.0,10.0,79,0.03,,---,0.35,VWS V14.01,2013-01-09 20:30:00,
2013-01-09 12:35:00,42.7,36.7,29.53,SSE,148,1.0,10.0,79,0.04,,---,0.36,VWS V14.01,2013-01-09 20:35:00,
2013-01-09 12:40:00,43.1,36.7,29.53,SSW,209,7.0,10.0,78,0.04,,---,0.36,VWS V14.01,2013-01-09 20:40:00,
2013-01-09 12:45:00,43.3,36.9,29.53,SSW,197,2.0,11.0,78,0.04,,---,0.36,VWS V14.01,2013-01-09 20:45:00,
2013-01-09 12:50:00,43.2,36.8,29.52,South,175,1.0,11.0,78,0.04,,---,0.36,VWS V14.01,2013-01-09 20:50:00,
2013-01-09 12:55:00,42.9,36.5,29.52,South,178,7.0,11.0,78,0.04,,---,0.36,VWS V14.01,2013-01-09 20:55:00,
2013-01-09 13:00:00,42.9,36.5,29.52,SSW,212,4.0,11.0,78,0.04,,---,0.36,VWS V14.01,2013-01-09 21:00:00,
2013-01-09 13:05:00,42.8,36.4,29.52,SW,214,2.0,5.0,78,0.02,,---,0.36,VWS V14.01,2013-01-09 21:05:00,
2013-01-09 13:10:00,42.6,36.2,29.52,SW,223,4.0,8.0,78,0.03,,---,0.37,VWS V14.01,2013-01-09 21:10:00,
2013-01-09 13:15:00,42.4,36.0,29.52,SSW,192,2.0,11.0,78,0.03,,---,0.37,VWS V14.01,2013-01-09 21:15:00,
2013-01-09 13:20:00,42.7,36.0,29.52,SSW,209,3.0,11.0,77,0.03,,---,0.37,VWS V14.01,2013-01-09 21:20:00,
2013-01-09 13:25:00,42.7,36.0,29.53,SSW,195,3.0,11.0,77,0.03,,---,0.37,VWS V14.01,2013-01-09 21:25:00,
2013-01-09 13:30:00,42.4,35.7,29.52,SW,234,5.0,11.0,77,0.03,,---,0.37,VWS V14.01,2013-01-09 21:30:00,
2013-01-09 13:35:00,42.3,35.6,29.53,SSW,213,4.0,11.0,77,0.03,,---,0.37,VWS V14.01,2013-01-09 21:35:00,
2013-01-09 13:40:00,42.3,35.6,29.53,South,173,4.0,11.0,77,0.03,,---,0.37,VWS V14.01,2013-01-09 21:40:00,
2013-01-09 13:45:00,42.4,35.4,29.52,South,183,1.0,14.0,76,0.03,,---,0.37,VWS V14.01,2013-01-09 21:45:00,
2013-01-09 13:50:00,42.2,35.2,29.52,SSW,204,4.0,14.0,76,0.03,,---,0.37,VWS V14.01,2013-01-09 21:50:00,
2013-01-09 13:55:00,41.9,34.9,29.52,West,262,5.0,14.0,76,0.03,,---,0.37,VWS V14.01,2013-01-09 21:55:00,
2013-01-09 14:00:00,41.7,35.0,29.52,SW,231,6.0,14.0,77,0.03,,---,0.37,VWS V14.01,2013-01-09 22:00:00,
2013-01-09 14:05:00,41.5,35.2,29.52,SSW,213,3.0,11.0,78,0.01,,---,0.37,VWS V14.01,2013-01-09 22:05:00,
2013-01-09 14:10:00,41.3,35.0,29.53,South,178,7.0,11.0,78,0.01,,---,0.37,VWS V14.01,2013-01-09 22:10:00,
2013-01-09 14:15:00,41.0,34.7,29.54,SW,216,6.0,12.0,78,0.01,,---,0.37,VWS V14.01,2013-01-09 22:15:00,
2013-01-09 14:20:00,40.7,34.7,29.54,SW,225,5.0,12.0,79,0.01,,---,0.37,VWS V14.01,2013-01-09 22:20:00,
2013-01-09 14:25:00,40.6,34.6,29.54,SW,221,6.0,12.0,79,0.01,,---,0.37,VWS V14.01,2013-01-09 22:25:00,
2013-01-09 14:30:00,40.5,34.5,29.54,SSW,200,7.0,12.0,79,0.01,,---,0.37,VWS V14.01,2013-01-09 22:30:00,
2013-01-09 14:35:00,40.3,34.6,29.55,SW,217,1.0,14.0,80,0.01,,---,0.37,VWS V14.01,2013-01-09 22:35:00,
2013-01-09 14:40:00,40.0,34.3,29.55,SSE,167,7.0,14.0,80,0.02,,---,0.38,VWS V14.01,2013-01-09 22:40:00,
2013-01-09 14:45:00,39.9,34.5,29.55,SW,224,8.0,14.0,81,0.02,,---,0.38,VWS V14.01,2013-01-09 22:45:00,
2013-01-09 14:50:00,39.8,34.5,29.55,WSW,246,7.0,14.0,81,0.02,,---,0.38,VWS V14.01,2013-01-09 22:50:00,
2013-01-09 14:55:00,39.7,34.7,29.56,SSW,205,4.0,14.0,82,0.02,,---,0.38,VWS V14.01,2013-01-09 22:55:00,
2013-01-09 15:00:00,39.5,34.5,29.55,SSW,194,3.0,14.0,82,0.02,,---,0.38,VWS V14.01,2013-01-09 23:00:00,
2013-01-09 15:05:00,39.4,34.7,29.55,SW,221,2.0,10.0,83,0.01,,---,0.38,VWS V14.01,2013-01-09 23:05:00,
2013-01-09 15:10:00,39.3,34.6,29.56,SSE,166,5.0,10.0,83,0.01,,---,0.38,VWS V14.01,2013-01-09 23:10:00,
2013-01-09 15:15:00,39.1,34.7,29.56,SE,144,2.0,10.0,84,0.01,,---,0.38,VWS V14.01,2013-01-09 23:15:00,
2013-01-09 15:20:00,38.8,34.4,29.56,South,184,3.0,10.0,84,0.01,,---,0.38,VWS V14.01,2013-01-09 23:20:00,
2013-01-09 15:25:00,38.7,34.3,29.56,SW,217,4.0,10.0,84,0.01,,---,0.38,VWS V14.01,2013-01-09 23:25:00,
2013-01-09 15:30:00,38.6,34.5,29.57,South,179,6.0,10.0,85,0.01,,---,0.38,VWS V14.01,2013-01-09 23:30:00,
2013-01-09 15:35:00,38.4,34.6,29.57,SSW,209,5.0,13.0,86,0.01,,---,0.38,VWS V14.01,2013-01-09 23:35:00,
2013-01-09 15:40:00,38.3,34.5,29.57,SW,223,6.0,13.0,86,0.01,,---,0.38,VWS V14.01,2013-01-09 23:40:00,
2013-01-09 15:45:00,38.1,36.0,29.57,South,177,5.0,13.0,92,0.02,,---,0.39,VWS V14.01,2013-01-09 23:45:00,
2013-01-09 15:50:00,38.0,34.5,29.57,SSW,194,5.0,14.0,87,0.02,,---,0.39,VWS V14.01,2013-01-09 23:50:00,
2013-01-09 15:55:00,37.9,34.4,29.58,SSW,198,3.0,14.0,87,0.02,,---,0.39,VWS V14.01,2013-01-09 23:55:00,
2013-01-09 16:00:00,37.8,34.6,29.58,SSW,195,0.0,14.0,88,0.02,,---,0.39,VWS V14.01,2013-01-10 00:00:00,
2013-01-09 16:05:00,37.7,34.5,29.58,SSW,204,5.0,9.0,88,0.01,,---,0.39,VWS V14.01,2013-01-10 00:05:00,
2013-01-09 16:10:00,37.5,34.3,29.58,SW,215,10.0,13.0,88,0.01,,---,0.39,VWS V14.01,2013-01-10 00:10:00,
2013-01-09 16:15:00,37.4,34.2,29.57,SE,134,4.0,13.0,88,0.01,,---,0.39,VWS V14.01,2013-01-10 00:15:00,
2013-01-09 16:20:00,37.2,34.3,29.57,SW,223,2.0,13.0,89,0.01,,---,0.39,VWS V14.01,2013-01-10 00:20:00,
2013-01-09 16:25:00,37.0,34.1,29.57,SSE,152,5.0,13.0,89,0.01,,---,0.39,VWS V14.01,2013-01-10 00:25:00,
2013-01-09 16:30:00,36.8,33.9,29.58,SW,217,5.0,13.0,89,0.01,,---,0.39,VWS V14.01,2013-01-10 00:30:00,
2013-01-09 16:35:00,36.7,33.8,29.58,SW,219,6.0,13.0,89,0.01,,---,0.39,VWS V14.01,2013-01-10 00:35:00,
2013-01-09 16:40:00,36.6,33.7,29.58,SW,217,2.0,13.0,89,0.01,,---,0.39,VWS V14.01,2013-01-10 00:40:00,
2013-01-09 16:45:00,36.4,33.5,29.58,South,181,4.0,13.0,89,0.01,,---,0.39,VWS V14.01,2013-01-10 00:45:00,
2013-01-09 16:50:00,36.2,33.6,29.58,South,182,1.0,13.0,90,0.01,,---,0.39,VWS V14.01,2013-01-10 00:50:00,
2013-01-09 16:55:00,36.1,33.5,29.58,SE,135,4.0,13.0,90,0.01,,---,0.39,VWS V14.01,2013-01-10 00:55:00,
2013-01-09 17:00:00,36.0,33.4,29.58,SSE,166,5.0,13.0,90,0.01,,---,0.39,VWS V14.01,2013-01-10 01:00:00,
2013-01-09 17:05:00,35.9,33.3,29.58,SSW,205,4.0,10.0,90,0.00,,---,0.39,VWS V14.01,2013-01-10 01:05:00,
2013-01-09 17:10:00,35.9,33.3,29.59,SSW,198,3.0,11.0,90,0.00,,---,0.39,VWS V14.01,2013-01-10 01:10:00,
2013-01-09 17:15:00,35.8,32.9,29.59,SW,217,7.0,13.0,89,0.00,,---,0.39,VWS V14.01,2013-01-10 01:15:00,
2013-01-09 17:20:00,35.8,32.9,29.59,SE,145,5.0,13.0,89,0.00,,---,0.39,VWS V14.01,2013-01-10 01:20:00,
2013-01-09 17:25:00,35.8,33.2,29.59,SW,221,1.0,13.0,90,0.00,,---,0.39,VWS V14.01,2013-01-10 01:25:00,
2013-01-09 17:30:00,35.7,33.1,29.60,South,175,2.0,13.0,90,0.00,,---,0.39,VWS V14.01,2013-01-10 01:30:00,
2013-01-09 17:35:00,35.7,33.3,29.60,SSW,198,3.0,13.0,91,0.00,,---,0.39,VWS V14.01,2013-01-10 01:35:00,
2013-01-09 17:40:00,35.6,33.5,29.60,SW,219,7.0,13.0,92,0.00,,---,0.39,VWS V14.01,2013-01-10 01:40:00,
2013-01-09 17:45:00,35.4,33.3,29.60,SSW,195,5.0,13.0,92,0.00,,---,0.39,VWS V14.01,2013-01-10 01:45:00,
2013-01-09 17:50:00,35.3,33.2,29.60,WSW,246,6.0,13.0,92,0.00,,---,0.39,VWS V14.01,2013-01-10 01:50:00,
2013-01-09 17:55:00,35.2,33.1,29.60,South,189,4.0,13.0,92,0.00,,---,0.39,VWS V14.01,2013-01-10 01:55:00,
2013-01-09 18:00:00,35.0,33.2,29.60,SSW,208,5.0,13.0,93,0.00,,---,0.39,VWS V14.01,2013-01-10 02:00:00,
2013-01-09 18:05:00,34.8,33.0,29.60,SSE,167,4.0,11.0,93,0.00,,---,0.39,VWS V14.01,2013-01-10 02:05:00,
2013-01-09 18:10:00,34.7,32.9,29.60,SSW,192,5.0,11.0,93,0.00,,---,0.39,VWS V14.01,2013-01-10 02:10:00,
2013-01-09 18:15:00,34.6,32.8,29.61,SSW,196,2.0,11.0,93,0.00,,---,0.39,VWS V14.01,2013-01-10 02:15:00,
2013-01-09 18:20:00,34.5,32.7,29.61,South,188,2.0,11.0,93,0.00,,---,0.39,VWS V14.01,2013-01-10 02:20:00,
2013-01-09 18:25:00,34.4,32.6,29.61,SW,219,3.0,12.0,93,0.00,,---,0.39,VWS V14.01,2013-01-10 02:25:00,
2013-01-09 18:30:00,34.4,32.6,29.61,SSW,200,2.0,12.0,93,0.00,,---,0.39,VWS V14.01,2013-01-10 02:30:00,
2013-01-09 18:35:00,34.3,32.8,29.61,SSW,197,3.0,12.0,94,0.00,,---,0.39,VWS V14.01,2013-01-10 02:35:00,
2013-01-09 18:40:00,34.3,32.8,29.61,SSW,209,5.0,12.0,94,0.00,,---,0.39,VWS V14.01,2013-01-10 02:40:00,
2013-01-09 18:45:00,34.2,32.7,29.61,SW,218,7.0,12.0,94,0.00,,---,0.39,VWS V14.01,2013-01-10 02:45:00,
2013-01-09 18:50:00,34.2,32.4,29.61,SSW,205,4.0,12.0,93,0.00,,---,0.39,VWS V14.01,2013-01-10 02:50:00,
2013-01-09 18:55:00,34.1,32.3,29.62,SW,215,4.0,12.0,93,0.00,,---,0.39,VWS V14.01,2013-01-10 02:55:00,
2013-01-09 19:00:00,34.0,32.2,29.62,SW,232,6.0,12.0,93,0.00,,---,0.39,VWS V14.01,2013-01-10 03:00:00,
2013-01-09 19:05:00,33.9,32.4,29.63,SW,231,4.0,12.0,94,0.00,,---,0.39,VWS V14.01,2013-01-10 03:05:00,
2013-01-09 19:10:00,33.9,32.4,29.62,SW,216,3.0,12.0,94,0.00,,---,0.39,VWS V14.01,2013-01-10 03:10:00,
2013-01-09 19:15:00,33.9,32.4,29.62,SW,231,1.0,12.0,94,0.00,,---,0.39,VWS V14.01,2013-01-10 03:15:00,
2013-01-09 19:20:00,33.9,32.4,29.63,SW,223,2.0,12.0,94,0.00,,---,0.39,VWS V14.01,2013-01-10 03:20:00,
2013-01-09 19:25:00,33.8,32.3,29.63,SW,215,1.0,12.0,94,0.00,,---,0.39,VWS V14.01,2013-01-10 03:25:00,
2013-01-09 19:30:00,33.8,32.5,29.63,WSW,250,4.0,12.0,95,0.00,,---,0.39,VWS V14.01,2013-01-10 03:30:00,
2013-01-09 19:35:00,33.7,32.4,29.63,SSE,153,10.0,12.0,95,0.00,,---,0.39,VWS V14.01,2013-01-10 03:35:00,
2013-01-09 19:40:00,33.7,32.4,29.63,SSW,211,7.0,12.0,95,0.00,,---,0.39,VWS V14.01,2013-01-10 03:40:00,
2013-01-09 19:45:00,33.7,32.4,29.63,SW,223,4.0,12.0,95,0.00,,---,0.39,VWS V14.01,2013-01-10 03:45:00,
2013-01-09 19:50:00,33.7,32.4,29.64,South,173,2.0,12.0,95,0.00,,---,0.39,VWS V14.01,2013-01-10 03:50:00,
2013-01-09 19:55:00,33.6,32.3,29.63,West,259,6.0,12.0,95,0.00,,---,0.39,VWS V14.01,2013-01-10 03:55:00,
2013-01-09 20:00:00,33.5,32.2,29.63,SSW,211,5.0,12.0,95,0.00,,---,0.39,VWS V14.01,2013-01-10 04:00:00,
2013-01-09 20:05:00,33.4,31.9,29.63,SW,223,3.0,6.0,94,0.00,,---,0.39,VWS V14.01,2013-01-10 04:05:00,
2013-01-09 20:10:00,33.3,31.8,29.64,SW,229,4.0,8.0,94,0.00,,---,0.39,VWS V14.01,2013-01-10 04:10:00,
2013-01-09 20:15:00,33.2,31.7,29.64,SSW,211,5.0,8.0,94,0.00,,---,0.39,VWS V14.01,2013-01-10 04:15:00,
2013-01-09 20:20:00,33.1,31.6,29.64,SSW,202,1.0,8.0,94,0.00,,---,0.39,VWS V14.01,2013-01-10 04:20:00,
2013-01-09 20:25:00,32.9,31.4,29.64,SW,227,5.0,8.0,94,0.00,,---,0.39,VWS V14.01,2013-01-10 04:25:00,
2013-01-09 20:30:00,32.8,31.3,29.64,SW,229,5.0,8.0,94,0.00,,---,0.39,VWS V14.01,2013-01-10 04:30:00,
2013-01-09 20:35:00,32.8,31.3,29.64,South,176,4.0,8.0,94,0.00,,---,0.39,VWS V14.01,2013-01-10 04:35:00,
2013-01-09 20:40:00,32.7,31.2,29.65,SW,216,5.0,8.0,94,0.00,,---,0.39,VWS V14.01,2013-01-10 04:40:00,
2013-01-09 20:45:00,32.6,31.1,29.65,South,184,2.0,9.0,94,0.00,,---,0.39,VWS V14.01,2013-01-10 04:45:00,
2013-01-09 20:50:00,32.5,31.0,29.65,SW,218,3.0,9.0,94,0.00,,---,0.39,VWS V14.01,2013-01-10 04:50:00,
2013-01-09 20:55:00,32.4,30.9,29.65,SSW,209,7.0,9.0,94,0.00,,---,0.39,VWS V14.01,2013-01-10 04:55:00,
2013-01-09 21:00:00,32.3,30.8,29.65,SW,220,2.0,9.0,94,0.00,,---,0.39,VWS V14.01,2013-01-10 05:00:00,
2013-01-09 21:01:00,32.3,30.8,29.65,SW,220,2.0,9.0,94,0.00,,---,0.39,VWS V14.01,2013-01-10 05:01:00,
2013-01-09 21:02:00,32.3,30.8,29.65,SW,219,2.0,4.0,94,0.00,,---,0.39,VWS V14.01,2013-01-10 05:02:00,
2013-01-09 21:07:00,32.1,30.6,29.65,SW,232,1.0,5.0,94,0.00,,---,0.39,VWS V14.01,2013-01-10 05:07:00,
2013-01-09 21:12:00,32.1,30.6,29.65,SSW,200,2.0,6.0,94,0.00,,---,0.39,VWS V14.01,2013-01-10 05:12:00,
2013-01-09 21:17:00,32.0,30.5,29.65,SW,219,3.0,6.0,94,0.00,,---,0.39,VWS V14.01,2013-01-10 05:17:00,
2013-01-09 21:22:00,31.9,30.1,29.65,SW,226,2.0,7.0,93,0.00,,---,0.39,VWS V14.01,2013-01-10 05:22:00,
2013-01-09 21:27:00,31.7,29.9,29.65,SW,217,3.0,7.0,93,0.00,,---,0.39,VWS V14.01,2013-01-10 05:27:00,
2013-01-09 21:33:00,31.6,29.8,29.65,SW,215,2.0,7.0,93,0.00,,---,0.39,VWS V14.01,2013-01-10 05:33:00,
2013-01-09 21:38:00,31.5,29.7,29.65,SSW,212,4.0,7.0,93,0.00,,---,0.39,VWS V14.01,2013-01-10 05:38:00,
2013-01-09 21:43:00,31.5,29.7,29.65,SW,236,0.0,7.0,93,0.00,,---,0.39,VWS V14.01,2013-01-10 05:43:00,
2013-01-09 21:49:00,31.4,29.6,29.65,SW,217,2.0,7.0,93,0.00,,---,0.39,VWS V14.01,2013-01-10 05:49:00,
2013-01-09 21:54:00,31.4,29.6,29.66,SSW,194,0.0,7.0,93,0.00,,---,0.39,VWS V14.01,2013-01-10 05:54:00,
2013-01-09 21:59:00,31.3,29.8,29.67,SSW,200,1.0,7.0,94,0.00,,---,0.39,VWS V14.01,2013-01-10 05:59:00,
2013-01-09 22:04:00,31.2,29.7,29.67,SW,221,2.0,5.0,94,0.00,,---,0.39,VWS V14.01,2013-01-10 06:04:00,
2013-01-09 22:09:00,31.2,29.7,29.67,South,182,3.0,6.0,94,0.00,,---,0.39,VWS V14.01,2013-01-10 06:09:00,
2013-01-09 22:14:00,31.1,29.6,29.67,SW,235,1.0,6.0,94,0.00,,---,0.39,VWS V14.01,2013-01-10 06:14:00,
2013-01-09 23:00:00,30.9,29.6,29.68,SW,225,2.0,7.0,95,0.00,,---,0.39,VWS V14.01,2013-01-10 07:00:00,